Joffre, Pennsylvania
Current Conditions -  °F | °C
As of 1:51 PM on Friday 31 Oct 2014 (Local Time) from KPIT Reporting Station
Light Rain Light Rain  
Wind Chill:   Ceiling: 2400
Heat Index:   Visibility: 7mi
Dew Point:   Wind: 0mph
Humidity: 76%   Direction: NA
Pressure: 29.88"   Gusts: NA
Location:  40.38°N, 80.36°W
Report Text: KPIT 311751Z 00000KT 7SM -RA FEW012 BKN024 OVC039 07/03 A2988 RMK AO2 SLP132 P0001 60002 T00670028 10078 20061 58015
Loading
Personal Weather Stations






























Interactive Weather Map
Tropical Storm Tracking
New forecast layout! Learn more

10-Day Weather Forecast

Advertisements
Track Severe Weather on mobile